sensor_id;sensor_type;location;lat;lon;timestamp;P1;durP1;ratioP1;P2;durP2;ratioP2
3249;SDS011;1637;42.020;23.992;2022-11-23T00:01:36;9.27;;;2.57;;
3249;SDS011;1637;42.020;23.992;2022-11-23T00:04:04;2.90;;;1.97;;
3249;SDS011;1637;42.020;23.992;2022-11-23T00:06:32;4.27;;;2.17;;
3249;SDS011;1637;42.020;23.992;2022-11-23T00:09:00;2.00;;;1.80;;
3249;SDS011;1637;42.020;23.992;2022-11-23T00:11:27;3.23;;;1.80;;
3249;SDS011;1637;42.020;23.992;2022-11-23T00:13:54;2.27;;;1.93;;
3249;SDS011;1637;42.020;23.992;2022-11-23T00:16:23;2.00;;;1.30;;
3249;SDS011;1637;42.020;23.992;2022-11-23T00:18:51;2.50;;;1.40;;
3249;SDS011;1637;42.020;23.992;2022-11-23T00:21:19;2.50;;;1.70;;
3249;SDS011;1637;42.020;23.992;2022-11-23T00:23:46;5.20;;;2.70;;
3249;SDS011;1637;42.020;23.992;2022-11-23T00:26:13;2.97;;;2.23;;
3249;SDS011;1637;42.020;23.992;2022-11-23T00:28:41;3.77;;;2.20;;
3249;SDS011;1637;42.020;23.992;2022-11-23T00:31:09;4.63;;;1.90;;
3249;SDS011;1637;42.020;23.992;2022-11-23T00:33:38;5.20;;;2.50;;
3249;SDS011;1637;42.020;23.992;2022-11-23T00:36:06;2.80;;;2.20;;
3249;SDS011;1637;42.020;23.992;2022-11-23T00:38:36;3.73;;;2.40;;
3249;SDS011;1637;42.020;23.992;2022-11-23T00:41:03;6.17;;;4.30;;
3249;SDS011;1637;42.020;23.992;2022-11-23T00:43:32;9.20;;;3.77;;
3249;SDS011;1637;42.020;23.992;2022-11-23T00:46:06;4.87;;;1.93;;
3249;SDS011;1637;42.020;23.992;2022-11-23T00:48:34;4.67;;;2.00;;
3249;SDS011;1637;42.020;23.992;2022-11-23T00:51:03;3.93;;;1.90;;
3249;SDS011;1637;42.020;23.992;2022-11-23T00:53:32;2.17;;;1.83;;
3249;SDS011;1637;42.020;23.992;2022-11-23T00:55:59;3.13;;;2.33;;
3249;SDS011;1637;42.020;23.992;2022-11-23T00:58:26;4.90;;;2.87;;
3249;SDS011;1637;42.020;23.992;2022-11-23T01:00:59;4.40;;;3.30;;
3249;SDS011;1637;42.020;23.992;2022-11-23T01:03:28;4.63;;;3.30;;
3249;SDS011;1637;42.020;23.992;2022-11-23T01:05:55;4.10;;;3.00;;
3249;SDS011;1637;42.020;23.992;2022-11-23T01:08:28;4.43;;;2.50;;
3249;SDS011;1637;42.020;23.992;2022-11-23T01:10:57;4.27;;;2.63;;
3249;SDS011;1637;42.020;23.992;2022-11-23T01:13:24;6.13;;;3.97;;
3249;SDS011;1637;42.020;23.992;2022-11-23T01:15:52;7.60;;;4.70;;
3249;SDS011;1637;42.020;23.992;2022-11-23T01:18:19;6.43;;;4.60;;
3249;SDS011;1637;42.020;23.992;2022-11-23T01:20:45;4.20;;;3.00;;
3249;SDS011;1637;42.020;23.992;2022-11-23T01:23:12;5.30;;;3.40;;
3249;SDS011;1637;42.020;23.992;2022-11-23T01:25:40;8.00;;;3.17;;
3249;SDS011;1637;42.020;23.992;2022-11-23T01:28:07;4.23;;;3.07;;
3249;SDS011;1637;42.020;23.992;2022-11-23T01:30:34;4.40;;;3.10;;
3249;SDS011;1637;42.020;23.992;2022-11-23T01:33:01;10.90;;;4.83;;
3249;SDS011;1637;42.020;23.992;2022-11-23T01:35:28;7.07;;;4.30;;
3249;SDS011;1637;42.020;23.992;2022-11-23T01:37:55;6.47;;;3.53;;
3249;SDS011;1637;42.020;23.992;2022-11-23T01:40:22;6.10;;;2.93;;
3249;SDS011;1637;42.020;23.992;2022-11-23T01:42:52;9.93;;;4.33;;
3249;SDS011;1637;42.020;23.992;2022-11-23T01:45:32;4.30;;;3.57;;
3249;SDS011;1637;42.020;23.992;2022-11-23T01:48:01;5.53;;;3.50;;
3249;SDS011;1637;42.020;23.992;2022-11-23T01:50:29;7.50;;;4.03;;
3249;SDS011;1637;42.020;23.992;2022-11-23T01:52:56;11.27;;;4.87;;
3249;SDS011;1637;42.020;23.992;2022-11-23T01:55:26;19.27;;;6.20;;
3249;SDS011;1637;42.020;23.992;2022-11-23T01:57:54;14.30;;;7.90;;
3249;SDS011;1637;42.020;23.992;2022-11-23T02:00:21;9.90;;;5.77;;
3249;SDS011;1637;42.020;23.992;2022-11-23T02:02:49;14.80;;;6.17;;
3249;SDS011;1637;42.020;23.992;2022-11-23T02:05:20;23.53;;;11.80;;
3249;SDS011;1637;42.020;23.992;2022-11-23T02:07:50;20.13;;;10.20;;
3249;SDS011;1637;42.020;23.992;2022-11-23T02:10:17;9.53;;;5.57;;
3249;SDS011;1637;42.020;23.992;2022-11-23T02:12:47;5.83;;;4.47;;
3249;SDS011;1637;42.020;23.992;2022-11-23T02:15:15;17.47;;;8.07;;
3249;SDS011;1637;42.020;23.992;2022-11-23T02:17:42;16.30;;;8.00;;
3249;SDS011;1637;42.020;23.992;2022-11-23T02:20:09;26.77;;;12.20;;
3249;SDS011;1637;42.020;23.992;2022-11-23T02:22:41;19.30;;;9.10;;
3249;SDS011;1637;42.020;23.992;2022-11-23T02:25:18;17.23;;;9.10;;
3249;SDS011;1637;42.020;23.992;2022-11-23T02:27:54;17.03;;;7.80;;
3249;SDS011;1637;42.020;23.992;2022-11-23T02:30:22;15.40;;;8.37;;
3249;SDS011;1637;42.020;23.992;2022-11-23T02:32:49;16.83;;;8.20;;
3249;SDS011;1637;42.020;23.992;2022-11-23T02:35:16;10.37;;;6.70;;
3249;SDS011;1637;42.020;23.992;2022-11-23T02:37:43;16.87;;;7.60;;
3249;SDS011;1637;42.020;23.992;2022-11-23T02:40:11;12.90;;;6.87;;
3249;SDS011;1637;42.020;23.992;2022-11-23T02:42:47;15.60;;;7.90;;
3249;SDS011;1637;42.020;23.992;2022-11-23T02:45:17;11.57;;;6.80;;
3249;SDS011;1637;42.020;23.992;2022-11-23T02:47:52;14.30;;;7.00;;
3249;SDS011;1637;42.020;23.992;2022-11-23T02:50:19;11.63;;;7.40;;
3249;SDS011;1637;42.020;23.992;2022-11-23T02:52:46;19.93;;;7.90;;
3249;SDS011;1637;42.020;23.992;2022-11-23T02:55:13;16.17;;;7.30;;
3249;SDS011;1637;42.020;23.992;2022-11-23T02:57:40;19.17;;;9.23;;
3249;SDS011;1637;42.020;23.992;2022-11-23T03:00:07;23.07;;;11.83;;
3249;SDS011;1637;42.020;23.992;2022-11-23T03:02:36;23.23;;;10.53;;
3249;SDS011;1637;42.020;23.992;2022-11-23T03:05:04;15.53;;;8.87;;
3249;SDS011;1637;42.020;23.992;2022-11-23T03:07:31;16.20;;;8.53;;
3249;SDS011;1637;42.020;23.992;2022-11-23T03:09:58;15.00;;;8.53;;
3249;SDS011;1637;42.020;23.992;2022-11-23T03:12:25;12.10;;;7.90;;
3249;SDS011;1637;42.020;23.992;2022-11-23T03:14:52;12.30;;;6.93;;
3249;SDS011;1637;42.020;23.992;2022-11-23T03:17:19;9.17;;;6.27;;
3249;SDS011;1637;42.020;23.992;2022-11-23T03:19:47;8.57;;;5.53;;
3249;SDS011;1637;42.020;23.992;2022-11-23T03:22:13;5.90;;;4.60;;
3249;SDS011;1637;42.020;23.992;2022-11-23T03:24:40;8.33;;;4.50;;
3249;SDS011;1637;42.020;23.992;2022-11-23T03:27:07;7.97;;;4.40;;
3249;SDS011;1637;42.020;23.992;2022-11-23T03:29:34;8.00;;;5.20;;
3249;SDS011;1637;42.020;23.992;2022-11-23T03:32:01;8.90;;;5.40;;
3249;SDS011;1637;42.020;23.992;2022-11-23T03:34:27;8.23;;;5.23;;
3249;SDS011;1637;42.020;23.992;2022-11-23T03:36:56;9.27;;;5.50;;
3249;SDS011;1637;42.020;23.992;2022-11-23T03:39:22;8.70;;;5.50;;
3249;SDS011;1637;42.020;23.992;2022-11-23T03:41:49;9.53;;;6.23;;
3249;SDS011;1637;42.020;23.992;2022-11-23T03:44:16;12.77;;;6.97;;
3249;SDS011;1637;42.020;23.992;2022-11-23T03:46:43;11.43;;;7.27;;
3249;SDS011;1637;42.020;23.992;2022-11-23T03:49:10;9.07;;;5.80;;
3249;SDS011;1637;42.020;23.992;2022-11-23T03:51:36;9.13;;;6.07;;
3249;SDS011;1637;42.020;23.992;2022-11-23T03:54:05;9.47;;;5.87;;
3249;SDS011;1637;42.020;23.992;2022-11-23T03:56:32;15.90;;;6.87;;
3249;SDS011;1637;42.020;23.992;2022-11-23T03:58:59;15.83;;;8.30;;
3249;SDS011;1637;42.020;23.992;2022-11-23T04:01:25;10.73;;;6.50;;
3249;SDS011;1637;42.020;23.992;2022-11-23T04:03:52;8.77;;;5.23;;
3249;SDS011;1637;42.020;23.992;2022-11-23T04:06:19;11.33;;;7.40;;
3249;SDS011;1637;42.020;23.992;2022-11-23T04:08:46;9.47;;;6.30;;
3249;SDS011;1637;42.020;23.992;2022-11-23T04:11:14;17.60;;;12.17;;
3249;SDS011;1637;42.020;23.992;2022-11-23T04:13:41;20.57;;;12.20;;
3249;SDS011;1637;42.020;23.992;2022-11-23T04:16:08;26.60;;;16.83;;
3249;SDS011;1637;42.020;23.992;2022-11-23T04:18:34;17.80;;;12.07;;
3249;SDS011;1637;42.020;23.992;2022-11-23T04:21:01;12.53;;;6.30;;
3249;SDS011;1637;42.020;23.992;2022-11-23T04:23:28;12.37;;;7.63;;
3249;SDS011;1637;42.020;23.992;2022-11-23T04:25:55;22.40;;;13.90;;
3249;SDS011;1637;42.020;23.992;2022-11-23T04:28:23;12.40;;;6.77;;
3249;SDS011;1637;42.020;23.992;2022-11-23T04:30:50;10.87;;;7.17;;
3249;SDS011;1637;42.020;23.992;2022-11-23T04:33:17;18.10;;;9.00;;
3249;SDS011;1637;42.020;23.992;2022-11-23T04:35:44;14.30;;;9.67;;
3249;SDS011;1637;42.020;23.992;2022-11-23T04:38:10;25.53;;;14.00;;
3249;SDS011;1637;42.020;23.992;2022-11-23T04:40:37;20.30;;;15.17;;
3249;SDS011;1637;42.020;23.992;2022-11-23T04:43:04;23.07;;;14.93;;
3249;SDS011;1637;42.020;23.992;2022-11-23T04:45:36;21.03;;;12.67;;
3249;SDS011;1637;42.020;23.992;2022-11-23T04:48:03;17.53;;;11.00;;
3249;SDS011;1637;42.020;23.992;2022-11-23T04:50:31;26.17;;;15.80;;
3249;SDS011;1637;42.020;23.992;2022-11-23T04:52:58;38.10;;;18.73;;
3249;SDS011;1637;42.020;23.992;2022-11-23T04:55:25;46.20;;;24.27;;
3249;SDS011;1637;42.020;23.992;2022-11-23T04:57:52;35.57;;;20.40;;
3249;SDS011;1637;42.020;23.992;2022-11-23T05:00:19;35.10;;;20.10;;
3249;SDS011;1637;42.020;23.992;2022-11-23T05:02:47;36.57;;;20.47;;
3249;SDS011;1637;42.020;23.992;2022-11-23T05:05:14;52.10;;;24.50;;
3249;SDS011;1637;42.020;23.992;2022-11-23T05:07:41;34.90;;;17.90;;
3249;SDS011;1637;42.020;23.992;2022-11-23T05:10:08;35.37;;;19.47;;
3249;SDS011;1637;42.020;23.992;2022-11-23T05:12:35;32.33;;;18.27;;
3249;SDS011;1637;42.020;23.992;2022-11-23T05:15:02;35.70;;;19.90;;
3249;SDS011;1637;42.020;23.992;2022-11-23T05:17:29;36.30;;;19.10;;
3249;SDS011;1637;42.020;23.992;2022-11-23T05:19:59;37.57;;;20.80;;
3249;SDS011;1637;42.020;23.992;2022-11-23T05:22:25;35.47;;;20.20;;
3249;SDS011;1637;42.020;23.992;2022-11-23T05:24:52;27.77;;;17.00;;
3249;SDS011;1637;42.020;23.992;2022-11-23T05:27:19;25.27;;;16.27;;
3249;SDS011;1637;42.020;23.992;2022-11-23T05:29:46;36.33;;;18.23;;
3249;SDS011;1637;42.020;23.992;2022-11-23T05:32:13;35.80;;;19.30;;
3249;SDS011;1637;42.020;23.992;2022-11-23T05:34:40;37.80;;;22.50;;
3249;SDS011;1637;42.020;23.992;2022-11-23T05:37:08;29.43;;;17.47;;
3249;SDS011;1637;42.020;23.992;2022-11-23T05:39:35;22.07;;;14.87;;
3249;SDS011;1637;42.020;23.992;2022-11-23T05:42:01;28.70;;;16.03;;
3249;SDS011;1637;42.020;23.992;2022-11-23T05:44:28;34.10;;;17.00;;
3249;SDS011;1637;42.020;23.992;2022-11-23T05:46:55;28.00;;;17.00;;
3249;SDS011;1637;42.020;23.992;2022-11-23T05:49:22;28.83;;;14.87;;
3249;SDS011;1637;42.020;23.992;2022-11-23T05:51:49;33.30;;;18.50;;
3249;SDS011;1637;42.020;23.992;2022-11-23T05:54:17;43.53;;;24.07;;
3249;SDS011;1637;42.020;23.992;2022-11-23T05:56:44;20.97;;;11.33;;
3249;SDS011;1637;42.020;23.992;2022-11-23T05:59:11;17.17;;;10.30;;
3249;SDS011;1637;42.020;23.992;2022-11-23T06:01:38;17.13;;;10.50;;
3249;SDS011;1637;42.020;23.992;2022-11-23T06:04:05;21.03;;;12.07;;
3249;SDS011;1637;42.020;23.992;2022-11-23T06:06:32;65.43;;;36.87;;
3249;SDS011;1637;42.020;23.992;2022-11-23T06:08:58;21.13;;;11.53;;
3249;SDS011;1637;42.020;23.992;2022-11-23T06:11:27;30.93;;;19.63;;
3249;SDS011;1637;42.020;23.992;2022-11-23T06:13:55;16.40;;;10.20;;
3249;SDS011;1637;42.020;23.992;2022-11-23T06:16:22;21.30;;;11.90;;
3249;SDS011;1637;42.020;23.992;2022-11-23T06:18:49;16.13;;;8.43;;
3249;SDS011;1637;42.020;23.992;2022-11-23T06:21:15;35.13;;;16.43;;
3249;SDS011;1637;42.020;23.992;2022-11-23T06:23:42;22.30;;;13.80;;
3249;SDS011;1637;42.020;23.992;2022-11-23T06:26:09;25.30;;;15.73;;
3249;SDS011;1637;42.020;23.992;2022-11-23T06:28:38;30.13;;;20.87;;
3249;SDS011;1637;42.020;23.992;2022-11-23T06:31:05;22.63;;;14.70;;
3249;SDS011;1637;42.020;23.992;2022-11-23T06:33:32;39.97;;;16.10;;
3249;SDS011;1637;42.020;23.992;2022-11-23T06:36:00;23.47;;;12.80;;
3249;SDS011;1637;42.020;23.992;2022-11-23T06:38:27;48.63;;;21.47;;
3249;SDS011;1637;42.020;23.992;2022-11-23T06:40:56;63.80;;;28.87;;
3249;SDS011;1637;42.020;23.992;2022-11-23T06:43:24;52.37;;;31.47;;
3249;SDS011;1637;42.020;23.992;2022-11-23T06:45:52;52.20;;;27.93;;
3249;SDS011;1637;42.020;23.992;2022-11-23T06:48:19;37.20;;;20.57;;
3249;SDS011;1637;42.020;23.992;2022-11-23T06:50:46;40.90;;;21.50;;
3249;SDS011;1637;42.020;23.992;2022-11-23T06:53:13;42.93;;;19.77;;
3249;SDS011;1637;42.020;23.992;2022-11-23T06:55:40;42.37;;;25.13;;
3249;SDS011;1637;42.020;23.992;2022-11-23T06:58:07;49.07;;;27.00;;
3249;SDS011;1637;42.020;23.992;2022-11-23T07:00:34;73.37;;;37.03;;
3249;SDS011;1637;42.020;23.992;2022-11-23T07:03:03;80.77;;;40.13;;
3249;SDS011;1637;42.020;23.992;2022-11-23T07:05:29;73.50;;;35.80;;
3249;SDS011;1637;42.020;23.992;2022-11-23T07:07:56;69.60;;;34.80;;
3249;SDS011;1637;42.020;23.992;2022-11-23T07:10:23;67.17;;;35.87;;
3249;SDS011;1637;42.020;23.992;2022-11-23T07:12:50;73.00;;;36.47;;
3249;SDS011;1637;42.020;23.992;2022-11-23T07:15:17;65.93;;;37.60;;
3249;SDS011;1637;42.020;23.992;2022-11-23T07:17:44;75.87;;;42.50;;
3249;SDS011;1637;42.020;23.992;2022-11-23T07:20:12;71.50;;;38.37;;
3249;SDS011;1637;42.020;23.992;2022-11-23T07:22:39;73.27;;;38.30;;
3249;SDS011;1637;42.020;23.992;2022-11-23T07:25:07;69.50;;;33.07;;
3249;SDS011;1637;42.020;23.992;2022-11-23T07:27:35;68.50;;;37.53;;
3249;SDS011;1637;42.020;23.992;2022-11-23T07:30:02;95.30;;;42.17;;
3249;SDS011;1637;42.020;23.992;2022-11-23T07:32:29;142.13;;;63.80;;
3249;SDS011;1637;42.020;23.992;2022-11-23T07:34:56;76.33;;;37.63;;
3249;SDS011;1637;42.020;23.992;2022-11-23T07:37:24;60.43;;;31.53;;
3249;SDS011;1637;42.020;23.992;2022-11-23T07:39:51;78.53;;;36.77;;
3249;SDS011;1637;42.020;23.992;2022-11-23T07:42:18;51.20;;;26.07;;
3249;SDS011;1637;42.020;23.992;2022-11-23T07:44:45;63.90;;;33.10;;
3249;SDS011;1637;42.020;23.992;2022-11-23T07:47:12;61.93;;;31.73;;
3249;SDS011;1637;42.020;23.992;2022-11-23T07:49:38;72.20;;;35.27;;
3249;SDS011;1637;42.020;23.992;2022-11-23T07:52:05;71.83;;;36.50;;
3249;SDS011;1637;42.020;23.992;2022-11-23T07:54:33;84.63;;;42.60;;
3249;SDS011;1637;42.020;23.992;2022-11-23T07:57:00;86.83;;;36.93;;
3249;SDS011;1637;42.020;23.992;2022-11-23T07:59:27;70.40;;;33.40;;
3249;SDS011;1637;42.020;23.992;2022-11-23T08:01:54;55.73;;;26.57;;
3249;SDS011;1637;42.020;23.992;2022-11-23T08:04:21;59.50;;;28.40;;
3249;SDS011;1637;42.020;23.992;2022-11-23T08:06:48;41.20;;;21.03;;
3249;SDS011;1637;42.020;23.992;2022-11-23T08:09:14;47.40;;;23.07;;
3249;SDS011;1637;42.020;23.992;2022-11-23T08:11:43;53.83;;;27.13;;
3249;SDS011;1637;42.020;23.992;2022-11-23T08:14:09;58.07;;;28.80;;
3249;SDS011;1637;42.020;23.992;2022-11-23T08:16:36;56.37;;;28.27;;
3249;SDS011;1637;42.020;23.992;2022-11-23T08:19:03;62.50;;;29.30;;
3249;SDS011;1637;42.020;23.992;2022-11-23T08:21:30;54.37;;;27.70;;
3249;SDS011;1637;42.020;23.992;2022-11-23T08:23:57;51.40;;;25.60;;
3249;SDS011;1637;42.020;23.992;2022-11-23T08:26:23;52.27;;;28.50;;
3249;SDS011;1637;42.020;23.992;2022-11-23T08:28:54;59.60;;;32.47;;
3249;SDS011;1637;42.020;23.992;2022-11-23T08:31:21;68.90;;;32.13;;
3249;SDS011;1637;42.020;23.992;2022-11-23T08:33:48;67.47;;;36.27;;
3249;SDS011;1637;42.020;23.992;2022-11-23T08:36:15;72.50;;;40.53;;
3249;SDS011;1637;42.020;23.992;2022-11-23T08:38:42;64.13;;;33.97;;
3249;SDS011;1637;42.020;23.992;2022-11-23T08:41:09;54.53;;;30.07;;
3249;SDS011;1637;42.020;23.992;2022-11-23T08:43:35;53.30;;;28.53;;
3249;SDS011;1637;42.020;23.992;2022-11-23T08:46:04;40.30;;;22.30;;
3249;SDS011;1637;42.020;23.992;2022-11-23T08:48:31;96.10;;;42.03;;
3249;SDS011;1637;42.020;23.992;2022-11-23T08:50:58;33.73;;;18.00;;
3249;SDS011;1637;42.020;23.992;2022-11-23T08:53:25;40.70;;;18.07;;
3249;SDS011;1637;42.020;23.992;2022-11-23T08:55:52;29.00;;;15.50;;
3249;SDS011;1637;42.020;23.992;2022-11-23T08:58:19;18.43;;;12.23;;
3249;SDS011;1637;42.020;23.992;2022-11-23T09:00:46;42.37;;;25.73;;
3249;SDS011;1637;42.020;23.992;2022-11-23T09:03:14;22.90;;;13.40;;
3249;SDS011;1637;42.020;23.992;2022-11-23T09:05:41;18.70;;;11.67;;
3249;SDS011;1637;42.020;23.992;2022-11-23T09:08:08;20.40;;;12.97;;
3249;SDS011;1637;42.020;23.992;2022-11-23T09:10:35;27.80;;;13.50;;
3249;SDS011;1637;42.020;23.992;2022-11-23T09:13:03;20.87;;;12.50;;
3249;SDS011;1637;42.020;23.992;2022-11-23T09:15:29;29.40;;;14.60;;
3249;SDS011;1637;42.020;23.992;2022-11-23T09:17:56;21.60;;;12.20;;
3249;SDS011;1637;42.020;23.992;2022-11-23T09:20:25;27.20;;;19.30;;
3249;SDS011;1637;42.020;23.992;2022-11-23T09:22:52;15.20;;;9.87;;
3249;SDS011;1637;42.020;23.992;2022-11-23T09:25:20;14.93;;;8.93;;
3249;SDS011;1637;42.020;23.992;2022-11-23T09:27:48;45.37;;;13.67;;
3249;SDS011;1637;42.020;23.992;2022-11-23T09:30:15;16.57;;;7.83;;
3249;SDS011;1637;42.020;23.992;2022-11-23T09:32:42;5.77;;;2.77;;
3249;SDS011;1637;42.020;23.992;2022-11-23T09:35:09;5.73;;;2.43;;
3249;SDS011;1637;42.020;23.992;2022-11-23T09:37:38;7.13;;;4.23;;
3249;SDS011;1637;42.020;23.992;2022-11-23T09:40:05;4.10;;;1.67;;
3249;SDS011;1637;42.020;23.992;2022-11-23T09:42:44;5.93;;;3.60;;
3249;SDS011;1637;42.020;23.992;2022-11-23T09:45:24;3.03;;;1.87;;
3249;SDS011;1637;42.020;23.992;2022-11-23T09:47:59;5.90;;;3.07;;
3249;SDS011;1637;42.020;23.992;2022-11-23T09:50:44;10.37;;;1.50;;
3249;SDS011;1637;42.020;23.992;2022-11-23T09:53:14;5.20;;;1.90;;
3249;SDS011;1637;42.020;23.992;2022-11-23T09:55:45;7.60;;;2.53;;
3249;SDS011;1637;42.020;23.992;2022-11-23T09:58:14;2.60;;;1.57;;
3249;SDS011;1637;42.020;23.992;2022-11-23T10:00:44;8.03;;;1.20;;
3249;SDS011;1637;42.020;23.992;2022-11-23T10:03:13;4.90;;;2.00;;
3249;SDS011;1637;42.020;23.992;2022-11-23T10:05:43;8.87;;;2.87;;
3249;SDS011;1637;42.020;23.992;2022-11-23T10:08:24;6.80;;;2.30;;
3249;SDS011;1637;42.020;23.992;2022-11-23T10:11:05;3.33;;;1.37;;
3249;SDS011;1637;42.020;23.992;2022-11-23T10:13:48;10.53;;;1.13;;
3249;SDS011;1637;42.020;23.992;2022-11-23T10:16:27;4.17;;;1.30;;
3249;SDS011;1637;42.020;23.992;2022-11-23T10:19:02;1.03;;;0.90;;
3249;SDS011;1637;42.020;23.992;2022-11-23T10:21:36;1.77;;;0.90;;
3249;SDS011;1637;42.020;23.992;2022-11-23T10:24:17;7.23;;;1.20;;
3249;SDS011;1637;42.020;23.992;2022-11-23T10:26:49;3.33;;;1.27;;
3249;SDS011;1637;42.020;23.992;2022-11-23T10:29:24;9.27;;;2.10;;
3249;SDS011;1637;42.020;23.992;2022-11-23T10:31:54;2.10;;;1.63;;
3249;SDS011;1637;42.020;23.992;2022-11-23T10:34:23;3.47;;;1.20;;
3249;SDS011;1637;42.020;23.992;2022-11-23T10:37:00;3.90;;;1.23;;
3249;SDS011;1637;42.020;23.992;2022-11-23T10:39:28;2.67;;;1.10;;
3249;SDS011;1637;42.020;23.992;2022-11-23T10:41:56;4.20;;;1.27;;
3249;SDS011;1637;42.020;23.992;2022-11-23T10:44:29;3.50;;;1.20;;
3249;SDS011;1637;42.020;23.992;2022-11-23T10:46:58;9.73;;;1.30;;
3249;SDS011;1637;42.020;23.992;2022-11-23T10:49:25;10.70;;;5.07;;
3249;SDS011;1637;42.020;23.992;2022-11-23T10:51:54;7.03;;;3.63;;
3249;SDS011;1637;42.020;23.992;2022-11-23T10:54:24;5.80;;;2.33;;
3249;SDS011;1637;42.020;23.992;2022-11-23T10:56:55;5.57;;;2.07;;
3249;SDS011;1637;42.020;23.992;2022-11-23T10:59:27;8.23;;;2.40;;
3249;SDS011;1637;42.020;23.992;2022-11-23T11:02:00;3.87;;;1.60;;
3249;SDS011;1637;42.020;23.992;2022-11-23T11:04:42;12.33;;;3.30;;
3249;SDS011;1637;42.020;23.992;2022-11-23T11:07:16;14.30;;;3.67;;
3249;SDS011;1637;42.020;23.992;2022-11-23T11:09:49;40.33;;;14.80;;
3249;SDS011;1637;42.020;23.992;2022-11-23T11:12:19;2.90;;;2.00;;
3249;SDS011;1637;42.020;23.992;2022-11-23T11:14:56;3.53;;;1.73;;
3249;SDS011;1637;42.020;23.992;2022-11-23T11:17:27;14.30;;;4.50;;
3249;SDS011;1637;42.020;23.992;2022-11-23T11:19:55;11.67;;;6.83;;
3249;SDS011;1637;42.020;23.992;2022-11-23T11:22:32;4.63;;;2.20;;
3249;SDS011;1637;42.020;23.992;2022-11-23T11:25:00;8.40;;;4.97;;
3249;SDS011;1637;42.020;23.992;2022-11-23T11:27:31;6.67;;;2.93;;
3249;SDS011;1637;42.020;23.992;2022-11-23T11:30:02;4.33;;;2.00;;
3249;SDS011;1637;42.020;23.992;2022-11-23T11:32:34;8.67;;;3.03;;
3249;SDS011;1637;42.020;23.992;2022-11-23T11:35:12;5.47;;;2.07;;
3249;SDS011;1637;42.020;23.992;2022-11-23T11:37:42;3.77;;;1.40;;
3249;SDS011;1637;42.020;23.992;2022-11-23T11:40:15;6.50;;;2.37;;
3249;SDS011;1637;42.020;23.992;2022-11-23T11:42:49;2.17;;;1.10;;
3249;SDS011;1637;42.020;23.992;2022-11-23T11:45:21;3.83;;;1.80;;
3249;SDS011;1637;42.020;23.992;2022-11-23T11:47:53;2.47;;;1.70;;
3249;SDS011;1637;42.020;23.992;2022-11-23T11:50:25;1.97;;;1.77;;
3249;SDS011;1637;42.020;23.992;2022-11-23T11:53:00;3.80;;;1.90;;
3249;SDS011;1637;42.020;23.992;2022-11-23T11:55:34;3.83;;;0.77;;
3249;SDS011;1637;42.020;23.992;2022-11-23T11:58:14;3.03;;;1.77;;
3249;SDS011;1637;42.020;23.992;2022-11-23T12:00:42;3.90;;;1.80;;
3249;SDS011;1637;42.020;23.992;2022-11-23T12:03:18;2.77;;;1.13;;
3249;SDS011;1637;42.020;23.992;2022-11-23T12:05:51;6.03;;;2.57;;
3249;SDS011;1637;42.020;23.992;2022-11-23T12:08:21;18.83;;;1.80;;
3249;SDS011;1637;42.020;23.992;2022-11-23T12:10:56;7.27;;;1.30;;
3249;SDS011;1637;42.020;23.992;2022-11-23T12:13:28;7.37;;;2.00;;
3249;SDS011;1637;42.020;23.992;2022-11-23T12:15:59;1.67;;;0.80;;
3249;SDS011;1637;42.020;23.992;2022-11-23T12:18:37;3.20;;;2.03;;
3249;SDS011;1637;42.020;23.992;2022-11-23T12:21:16;6.43;;;2.67;;
3249;SDS011;1637;42.020;23.992;2022-11-23T12:23:58;3.77;;;2.20;;
3249;SDS011;1637;42.020;23.992;2022-11-23T12:26:36;3.17;;;2.60;;
3249;SDS011;1637;42.020;23.992;2022-11-23T12:29:33;3.90;;;1.43;;
3249;SDS011;1637;42.020;23.992;2022-11-23T12:32:12;2.60;;;1.60;;
3249;SDS011;1637;42.020;23.992;2022-11-23T12:37:48;4.10;;;2.83;;
3249;SDS011;1637;42.020;23.992;2022-11-23T12:40:31;3.83;;;2.20;;
3249;SDS011;1637;42.020;23.992;2022-11-23T12:43:11;4.57;;;3.00;;
3249;SDS011;1637;42.020;23.992;2022-11-23T12:45:49;7.23;;;3.70;;
3249;SDS011;1637;42.020;23.992;2022-11-23T12:48:34;12.27;;;4.77;;
3249;SDS011;1637;42.020;23.992;2022-11-23T12:51:13;12.50;;;5.03;;
3249;SDS011;1637;42.020;23.992;2022-11-23T12:53:51;15.70;;;6.30;;
3249;SDS011;1637;42.020;23.992;2022-11-23T12:56:35;9.30;;;4.30;;
3249;SDS011;1637;42.020;23.992;2022-11-23T12:59:20;6.80;;;1.87;;
3249;SDS011;1637;42.020;23.992;2022-11-23T13:01:51;11.10;;;3.73;;
3249;SDS011;1637;42.020;23.992;2022-11-23T13:04:28;8.60;;;3.40;;
3249;SDS011;1637;42.020;23.992;2022-11-23T13:07:08;10.83;;;5.27;;
3249;SDS011;1637;42.020;23.992;2022-11-23T13:09:52;11.37;;;5.70;;
3249;SDS011;1637;42.020;23.992;2022-11-23T13:12:30;5.50;;;3.63;;
3249;SDS011;1637;42.020;23.992;2022-11-23T13:15:16;5.33;;;2.87;;
3249;SDS011;1637;42.020;23.992;2022-11-23T13:17:54;6.77;;;2.93;;
3249;SDS011;1637;42.020;23.992;2022-11-23T13:23:30;2.63;;;1.60;;
3249;SDS011;1637;42.020;23.992;2022-11-23T13:26:13;11.00;;;5.50;;
3249;SDS011;1637;42.020;23.992;2022-11-23T13:28:41;9.00;;;4.63;;
3249;SDS011;1637;42.020;23.992;2022-11-23T13:31:19;22.37;;;8.60;;
3249;SDS011;1637;42.020;23.992;2022-11-23T13:33:52;11.97;;;5.07;;
3249;SDS011;1637;42.020;23.992;2022-11-23T13:36:33;19.30;;;6.10;;
3249;SDS011;1637;42.020;23.992;2022-11-23T13:42:20;12.17;;;5.33;;
3249;SDS011;1637;42.020;23.992;2022-11-23T13:44:47;32.47;;;11.30;;
3249;SDS011;1637;42.020;23.992;2022-11-23T13:48:11;25.50;;;14.30;;
3249;SDS011;1637;42.020;23.992;2022-11-23T13:53:27;15.30;;;7.03;;
3249;SDS011;1637;42.020;23.992;2022-11-23T13:55:59;57.23;;;25.57;;
3249;SDS011;1637;42.020;23.992;2022-11-23T13:58:49;45.70;;;18.10;;
3249;SDS011;1637;42.020;23.992;2022-11-23T14:04:22;38.37;;;16.73;;
3249;SDS011;1637;42.020;23.992;2022-11-23T14:06:51;5.87;;;2.57;;
3249;SDS011;1637;42.020;23.992;2022-11-23T14:09:23;29.60;;;16.90;;
3249;SDS011;1637;42.020;23.992;2022-11-23T14:11:58;25.30;;;12.00;;
3249;SDS011;1637;42.020;23.992;2022-11-23T14:14:32;15.33;;;7.43;;
3249;SDS011;1637;42.020;23.992;2022-11-23T14:17:14;29.03;;;12.90;;
3249;SDS011;1637;42.020;23.992;2022-11-23T14:20:01;64.97;;;19.23;;
3249;SDS011;1637;42.020;23.992;2022-11-23T14:22:52;22.20;;;10.23;;
3249;SDS011;1637;42.020;23.992;2022-11-23T14:25:34;27.80;;;10.70;;
3249;SDS011;1637;42.020;23.992;2022-11-23T14:28:16;17.93;;;9.23;;
3249;SDS011;1637;42.020;23.992;2022-11-23T14:30:58;12.10;;;5.93;;
3249;SDS011;1637;42.020;23.992;2022-11-23T14:33:38;34.30;;;7.93;;
3249;SDS011;1637;42.020;23.992;2022-11-23T14:36:16;13.00;;;7.37;;
3249;SDS011;1637;42.020;23.992;2022-11-23T14:38:59;23.40;;;11.83;;
3249;SDS011;1637;42.020;23.992;2022-11-23T14:41:41;26.90;;;12.60;;
3249;SDS011;1637;42.020;23.992;2022-11-23T14:44:10;29.90;;;11.57;;
3249;SDS011;1637;42.020;23.992;2022-11-23T14:49:24;29.73;;;12.87;;
3249;SDS011;1637;42.020;23.992;2022-11-23T14:51:52;16.07;;;7.47;;
3249;SDS011;1637;42.020;23.992;2022-11-23T14:54:20;24.90;;;11.70;;
3249;SDS011;1637;42.020;23.992;2022-11-23T14:56:48;23.40;;;12.67;;
3249;SDS011;1637;42.020;23.992;2022-11-23T14:59:18;41.20;;;21.47;;
3249;SDS011;1637;42.020;23.992;2022-11-23T15:01:49;62.40;;;40.30;;
3249;SDS011;1637;42.020;23.992;2022-11-23T15:04:22;42.73;;;18.60;;
3249;SDS011;1637;42.020;23.992;2022-11-23T15:06:51;42.60;;;20.40;;
3249;SDS011;1637;42.020;23.992;2022-11-23T15:09:29;39.43;;;18.13;;
3249;SDS011;1637;42.020;23.992;2022-11-23T15:12:05;33.67;;;17.10;;
3249;SDS011;1637;42.020;23.992;2022-11-23T15:14:32;49.23;;;22.87;;
3249;SDS011;1637;42.020;23.992;2022-11-23T15:17:11;51.17;;;24.17;;
3249;SDS011;1637;42.020;23.992;2022-11-23T15:19:39;34.37;;;17.00;;
3249;SDS011;1637;42.020;23.992;2022-11-23T15:22:11;33.33;;;16.30;;
3249;SDS011;1637;42.020;23.992;2022-11-23T15:24:41;29.50;;;13.17;;